createdAt,value
2023-01-25T00:01:42.127Z,0.79
2023-01-25T00:03:44.992Z,0.69
2023-01-25T00:05:47.703Z,0.68
2023-01-25T00:07:50.409Z,0.64
2023-01-25T00:09:53.285Z,0.71
2023-01-25T00:11:58.136Z,0.41
2023-01-25T00:14:02.189Z,0.53
2023-01-25T00:16:06.096Z,0.65
2023-01-25T00:18:08.942Z,0.59
2023-01-25T00:20:12.304Z,0.67
2023-01-25T00:22:15.029Z,0.81
2023-01-25T00:24:18.124Z,0.85
2023-01-25T00:26:21.584Z,0.99
2023-01-25T00:28:24.364Z,0.77
2023-01-25T00:30:28.429Z,0.70
2023-01-25T00:32:50.643Z,0.77
2023-01-25T00:34:53.735Z,0.93
2023-01-25T00:36:58.127Z,0.93
2023-01-25T00:39:00.991Z,1.19
2023-01-25T00:41:03.716Z,1.31
2023-01-25T00:43:06.396Z,0.78
2023-01-25T00:45:12.760Z,1.18
2023-01-25T00:47:17.400Z,1.33
2023-01-25T00:49:22.278Z,1.43
2023-01-25T00:51:25.702Z,1.53
2023-01-25T00:53:28.471Z,1.50
2023-01-25T00:55:31.332Z,0.34
2023-01-25T00:57:34.120Z,1.19
2023-01-25T00:59:36.925Z,1.41
2023-01-25T01:01:41.829Z,1.42
2023-01-25T01:03:45.958Z,1.06
2023-01-25T01:05:49.641Z,1.22
2023-01-25T01:07:52.441Z,1.03
2023-01-25T01:09:55.306Z,0.97
2023-01-25T01:12:00.721Z,0.95
2023-01-25T01:14:03.457Z,1.01
2023-01-25T01:16:11.787Z,0.92
2023-01-25T01:18:14.556Z,1.01
2023-01-25T01:20:18.919Z,0.86
2023-01-25T01:22:21.694Z,1.25
2023-01-25T01:24:24.593Z,1.28
2023-01-25T01:26:27.497Z,1.07
2023-01-25T01:28:30.660Z,1.07
2023-01-25T01:30:33.549Z,1.30
2023-01-25T01:32:36.399Z,1.10
2023-01-25T01:34:39.468Z,0.88
2023-01-25T01:36:44.325Z,1.10
2023-01-25T01:38:47.553Z,1.16
2023-01-25T01:40:51.525Z,0.86
2023-01-25T01:42:59.476Z,1.07
2023-01-25T01:45:02.523Z,0.99
2023-01-25T01:47:05.563Z,0.70
2023-01-25T01:49:15.364Z,0.74
2023-01-25T01:51:24.279Z,1.03
2023-01-25T01:53:30.885Z,0.96
2023-01-25T01:55:34.608Z,1.08
2023-01-25T01:57:42.669Z,0.89
2023-01-25T01:59:51.754Z,1.25
2023-01-25T02:01:55.762Z,1.35
2023-01-25T02:03:58.841Z,1.17
2023-01-25T02:06:05.842Z,1.02
2023-01-25T02:08:13.278Z,1.04
2023-01-25T02:10:18.361Z,0.85
2023-01-25T02:12:24.359Z,1.07
2023-01-25T02:14:29.051Z,1.22
2023-01-25T02:16:32.327Z,0.99
2023-01-25T02:18:35.136Z,0.42
2023-01-25T02:20:41.318Z,0.98
2023-01-25T02:22:51.173Z,0.94
2023-01-25T02:25:04.151Z,1.16
2023-01-25T02:27:08.667Z,1.32
2023-01-25T02:29:11.887Z,1.45
2023-01-25T02:31:14.772Z,1.56
2023-01-25T02:33:17.685Z,1.16
2023-01-25T02:35:22.035Z,1.35
2023-01-25T02:37:25.686Z,1.59
2023-01-25T02:39:29.329Z,1.47
2023-01-25T02:41:36.042Z,1.39
2023-01-25T02:43:39.297Z,1.54
2023-01-25T02:45:42.440Z,1.65
2023-01-25T02:47:45.274Z,1.74
2023-01-25T02:49:48.233Z,1.66
2023-01-25T02:51:55.923Z,1.41
2023-01-25T02:54:00.028Z,1.41
2023-01-25T02:56:03.142Z,1.58
2023-01-25T02:58:08.465Z,1.51
2023-01-25T03:00:12.428Z,0.57
2023-01-25T03:02:15.199Z,1.52
2023-01-25T03:04:18.871Z,1.42
2023-01-25T03:06:23.704Z,1.28
2023-01-25T03:08:26.852Z,1.17
2023-01-25T03:10:30.230Z,1.49
2023-01-25T03:12:34.059Z,1.46
2023-01-25T03:14:38.196Z,1.46
2023-01-25T03:16:41.898Z,1.43
2023-01-25T03:18:44.740Z,1.61
2023-01-25T03:20:48.135Z,1.71
2023-01-25T03:22:51.026Z,1.74
2023-01-25T03:24:53.888Z,1.73
2023-01-25T03:27:14.183Z,1.70
2023-01-25T03:29:20.453Z,1.72
2023-01-25T03:31:26.570Z,1.73
2023-01-25T03:33:29.445Z,1.66
2023-01-25T03:35:32.237Z,1.41
2023-01-25T03:37:35.030Z,1.73
2023-01-25T03:39:39.479Z,1.77
2023-01-25T03:41:42.249Z,1.82
2023-01-25T03:43:47.440Z,1.57
2023-01-25T03:45:54.240Z,1.75
2023-01-25T03:47:58.349Z,1.87
2023-01-25T03:50:01.157Z,1.87
2023-01-25T03:52:05.145Z,1.87
2023-01-25T03:54:13.234Z,1.80
2023-01-25T03:56:20.232Z,1.71
2023-01-25T03:58:45.659Z,1.08
2023-01-25T04:00:48.927Z,1.76
2023-01-25T04:02:51.801Z,1.85
2023-01-25T04:04:57.604Z,1.92
2023-01-25T04:07:00.386Z,1.97
2023-01-25T04:09:04.644Z,1.89
2023-01-25T04:11:14.355Z,1.78
2023-01-25T04:13:20.986Z,1.65
2023-01-25T04:15:23.761Z,1.58
2023-01-25T04:17:27.200Z,1.57
2023-01-25T04:19:35.405Z,1.73
2023-01-25T04:21:41.345Z,1.71
2023-01-25T04:23:44.271Z,1.74
2023-01-25T04:25:54.174Z,1.80
2023-01-25T04:27:57.042Z,1.89
2023-01-25T04:30:00.103Z,1.48
2023-01-25T04:32:04.156Z,1.70
2023-01-25T04:34:07.305Z,1.77
2023-01-25T04:36:10.240Z,1.85
2023-01-25T04:38:15.187Z,1.66
2023-01-25T04:40:20.136Z,1.79
2023-01-25T04:42:23.149Z,1.76
2023-01-25T04:44:29.907Z,1.75
2023-01-25T04:46:34.780Z,1.75
2023-01-25T04:48:38.030Z,1.81
2023-01-25T04:50:44.039Z,1.36
2023-01-25T04:52:46.936Z,1.53
2023-01-25T04:54:51.385Z,1.73
2023-01-25T04:56:54.304Z,1.55
2023-01-25T04:58:57.211Z,1.57
2023-01-25T05:01:02.259Z,1.81
2023-01-25T05:03:05.535Z,1.87
2023-01-25T05:05:09.497Z,1.96
2023-01-25T05:07:12.475Z,1.41
2023-01-25T05:09:17.228Z,2.00
2023-01-25T05:11:22.359Z,1.97
2023-01-25T05:13:25.169Z,1.63
2023-01-25T05:15:36.968Z,1.46
2023-01-25T05:17:39.942Z,1.81
2023-01-25T05:19:44.481Z,1.88
2023-01-25T05:21:59.818Z,1.85
2023-01-25T05:24:22.998Z,1.77
2023-01-25T05:26:44.709Z,1.69
2023-01-25T05:28:47.576Z,1.79
2023-01-25T05:31:19.597Z,1.87
2023-01-25T05:33:23.244Z,1.90
2023-01-25T05:35:26.475Z,1.81
2023-01-25T05:37:31.601Z,1.71
2023-01-25T05:39:38.939Z,1.74
2023-01-25T05:41:43.057Z,1.68
2023-01-25T05:43:49.047Z,1.88
2023-01-25T05:45:54.397Z,1.84
2023-01-25T05:47:58.781Z,1.86
2023-01-25T05:50:01.951Z,2.00
2023-01-25T05:52:18.414Z,2.06
2023-01-25T05:54:21.208Z,2.06
2023-01-25T05:56:34.442Z,1.72
2023-01-25T05:58:38.886Z,1.58
2023-01-25T06:00:41.645Z,1.82
2023-01-25T06:02:45.156Z,1.51
2023-01-25T06:04:52.538Z,1.71
2023-01-25T06:06:55.391Z,1.47
2023-01-25T06:08:58.565Z,1.73
2023-01-25T06:11:08.069Z,1.80
2023-01-25T06:13:11.392Z,1.92
2023-01-25T06:15:16.699Z,2.00
2023-01-25T06:17:20.468Z,2.07
2023-01-25T06:19:44.436Z,1.67
2023-01-25T06:22:11.588Z,2.00
2023-01-25T06:24:14.383Z,1.79
2023-01-25T06:26:17.244Z,1.94
2023-01-25T06:28:20.127Z,1.85
2023-01-25T06:30:24.274Z,1.90
2023-01-25T06:32:27.294Z,1.85
2023-01-25T06:34:30.011Z,1.89
2023-01-25T06:36:33.382Z,1.80
2023-01-25T06:38:36.150Z,1.79
2023-01-25T06:40:38.889Z,1.77
2023-01-25T06:42:41.721Z,1.84
2023-01-25T06:44:44.459Z,1.89
2023-01-25T06:46:48.804Z,1.83
2023-01-25T06:48:51.578Z,1.87
2023-01-25T06:50:59.625Z,1.91
2023-01-25T06:53:02.469Z,1.96
2023-01-25T06:55:07.658Z,1.99
2023-01-25T06:57:12.070Z,2.00
2023-01-25T06:59:16.058Z,2.04
2023-01-25T07:01:21.532Z,1.26
2023-01-25T07:03:25.734Z,1.98
2023-01-25T07:05:28.571Z,2.03
2023-01-25T07:07:31.666Z,1.88
2023-01-25T07:09:34.473Z,1.88
2023-01-25T07:11:37.640Z,1.90
2023-01-25T07:13:40.980Z,1.93
2023-01-25T07:15:43.837Z,1.81
2023-01-25T07:17:46.627Z,1.86
2023-01-25T07:19:50.864Z,1.74
2023-01-25T07:21:53.706Z,1.91
2023-01-25T07:24:01.361Z,1.98
2023-01-25T07:26:05.209Z,1.89
2023-01-25T07:28:07.982Z,1.96
2023-01-25T07:30:12.197Z,2.03
2023-01-25T07:32:15.126Z,1.99
2023-01-25T07:34:18.044Z,1.99
2023-01-25T07:36:22.903Z,1.85
2023-01-25T07:38:25.915Z,1.82
2023-01-25T07:40:28.674Z,1.91
2023-01-25T07:42:31.385Z,1.89
2023-01-25T07:44:48.198Z,1.80
2023-01-25T07:46:50.954Z,1.89
2023-01-25T07:48:54.537Z,1.64
2023-01-25T07:51:12.456Z,1.69
2023-01-25T07:53:16.649Z,1.84
2023-01-25T07:55:19.493Z,1.82
2023-01-25T07:57:22.468Z,1.84
2023-01-25T07:59:25.990Z,1.86
2023-01-25T08:01:29.748Z,1.98
2023-01-25T08:03:32.444Z,1.93
2023-01-25T08:05:35.175Z,1.87
2023-01-25T08:07:37.955Z,1.89
2023-01-25T08:09:43.168Z,1.56
2023-01-25T08:11:45.890Z,2.01
2023-01-25T08:13:49.807Z,1.97
2023-01-25T08:15:55.936Z,2.02
2023-01-25T08:18:00.518Z,2.02
2023-01-25T08:20:04.498Z,2.04
2023-01-25T08:22:08.885Z,2.06
2023-01-25T08:24:11.885Z,2.06
2023-01-25T08:26:18.119Z,2.04
2023-01-25T08:28:20.873Z,2.07
2023-01-25T08:30:23.709Z,2.06
2023-01-25T08:32:26.450Z,2.11
2023-01-25T08:34:31.256Z,2.06
2023-01-25T08:36:34.668Z,2.15
2023-01-25T08:38:37.714Z,2.14
2023-01-25T08:40:40.406Z,2.09
2023-01-25T08:42:44.424Z,2.03
2023-01-25T08:44:47.127Z,2.03
2023-01-25T08:46:49.837Z,1.86
2023-01-25T08:48:54.628Z,1.90
2023-01-25T08:50:57.385Z,1.94
2023-01-25T08:53:00.201Z,1.93
2023-01-25T08:55:03.095Z,1.89
2023-01-25T08:57:06.285Z,1.81
2023-01-25T08:59:12.900Z,1.61
2023-01-25T09:01:17.515Z,1.72
2023-01-25T09:03:20.279Z,1.86
2023-01-25T09:05:22.981Z,1.45
2023-01-25T09:07:25.710Z,1.74
2023-01-25T09:09:29.906Z,1.88
2023-01-25T09:11:37.002Z,1.87
2023-01-25T09:13:43.337Z,1.65
2023-01-25T09:15:47.437Z,1.57
2023-01-25T09:17:51.979Z,1.66
2023-01-25T09:19:54.713Z,1.68
2023-01-25T09:21:57.437Z,1.94
2023-01-25T09:24:08.628Z,1.34
2023-01-25T09:26:15.301Z,1.89
2023-01-25T09:28:18.009Z,1.82
2023-01-25T09:30:23.186Z,1.48
2023-01-25T09:32:33.034Z,1.79
2023-01-25T09:34:35.777Z,1.97
2023-01-25T09:36:38.560Z,1.71
2023-01-25T09:38:41.366Z,1.51
2023-01-25T09:40:54.207Z,1.78
2023-01-25T09:43:06.722Z,1.65
2023-01-25T09:45:21.491Z,1.40
2023-01-25T09:47:30.613Z,1.82
2023-01-25T09:49:54.956Z,1.63
2023-01-25T09:52:17.001Z,1.96
2023-01-25T09:54:20.990Z,1.85
2023-01-25T09:56:26.835Z,1.84
2023-01-25T09:58:34.873Z,1.81
2023-01-25T10:00:43.561Z,1.59
2023-01-25T10:02:51.914Z,1.58
2023-01-25T10:05:02.534Z,1.69
2023-01-25T10:07:15.516Z,1.44
2023-01-25T10:09:28.550Z,1.45
2023-01-25T10:11:33.155Z,1.51
2023-01-25T10:13:35.937Z,1.51
2023-01-25T10:15:42.175Z,1.68
2023-01-25T10:17:45.158Z,1.70
2023-01-25T10:20:04.391Z,1.49
2023-01-25T10:22:16.308Z,1.53
2023-01-25T10:24:41.475Z,1.64
2023-01-25T10:26:49.400Z,1.79
2023-01-25T10:28:58.725Z,1.59
2023-01-25T10:31:04.432Z,1.90
2023-01-25T10:33:14.428Z,1.91
2023-01-25T10:35:34.427Z,2.02
2023-01-25T10:37:38.358Z,1.37
2023-01-25T10:39:47.560Z,1.32
2023-01-25T10:41:55.912Z,1.71
2023-01-25T10:44:12.648Z,1.72
2023-01-25T10:46:25.535Z,1.91
2023-01-25T10:48:33.026Z,1.99
2023-01-25T10:50:52.245Z,1.94
2023-01-25T10:52:59.606Z,1.97
2023-01-25T10:55:18.155Z,2.00
2023-01-25T10:57:23.479Z,1.86
2023-01-25T10:59:28.530Z,1.97
2023-01-25T11:01:33.260Z,2.02
2023-01-25T11:03:38.886Z,2.06
2023-01-25T11:05:41.817Z,2.04
2023-01-25T11:07:46.406Z,2.09
2023-01-25T11:09:49.186Z,2.10
2023-01-25T11:11:56.218Z,2.07
2023-01-25T11:13:59.081Z,2.06
2023-01-25T11:16:22.278Z,2.10
2023-01-25T11:18:28.569Z,2.21
2023-01-25T11:20:31.283Z,1.93
2023-01-25T11:22:34.261Z,1.83
2023-01-25T11:24:38.454Z,1.98
2023-01-25T11:26:42.075Z,2.01
2023-01-25T11:28:46.093Z,1.39
2023-01-25T11:30:49.694Z,2.13
2023-01-25T11:32:52.651Z,1.97
2023-01-25T11:34:56.067Z,1.97
2023-01-25T11:37:13.986Z,1.86
2023-01-25T11:39:30.829Z,1.98
2023-01-25T11:41:47.314Z,2.06
2023-01-25T11:44:06.648Z,1.23
2023-01-25T11:46:22.402Z,2.12
2023-01-25T11:48:49.379Z,2.15
2023-01-25T11:51:01.837Z,2.15
2023-01-25T11:53:27.534Z,2.09
2023-01-25T11:55:35.820Z,2.02
2023-01-25T11:58:01.605Z,2.08
2023-01-25T12:00:36.209Z,2.20
2023-01-25T12:03:05.706Z,2.00
2023-01-25T12:05:33.624Z,2.11
2023-01-25T12:07:54.560Z,1.83
2023-01-25T12:10:14.224Z,1.79
2023-01-25T12:12:25.713Z,1.78
2023-01-25T12:14:43.037Z,1.95
2023-01-25T12:17:07.993Z,2.03
2023-01-25T12:19:45.754Z,1.97
2023-01-25T12:22:05.131Z,2.04
2023-01-25T12:24:33.387Z,2.16
2023-01-25T12:26:47.355Z,2.06
2023-01-25T12:28:52.925Z,1.86
2023-01-25T12:31:03.007Z,1.53
2023-01-25T12:33:15.101Z,2.05
2023-01-25T12:35:31.745Z,1.90
2023-01-25T12:37:42.119Z,1.66
2023-01-25T12:39:49.994Z,2.19
2023-01-25T12:41:57.043Z,2.21
2023-01-25T12:44:09.772Z,2.01
2023-01-25T12:46:20.633Z,2.17
2023-01-25T12:48:28.176Z,2.26
2023-01-25T12:50:36.084Z,1.79
2023-01-25T12:52:42.191Z,1.50
2023-01-25T12:54:47.265Z,1.39
2023-01-25T12:56:58.285Z,1.58
2023-01-25T12:59:09.132Z,1.59
2023-01-25T13:01:25.352Z,1.60
2023-01-25T13:03:34.541Z,1.55
2023-01-25T13:05:43.028Z,1.41
2023-01-25T13:07:54.532Z,1.54
2023-01-25T13:10:02.531Z,1.57
2023-01-25T13:12:06.623Z,1.75
2023-01-25T13:14:27.593Z,1.81
2023-01-25T13:16:38.203Z,1.66
2023-01-25T13:18:42.022Z,1.52
2023-01-25T13:20:53.119Z,1.56
2023-01-25T13:22:58.798Z,1.46
2023-01-25T13:25:11.635Z,1.60
2023-01-25T13:27:26.267Z,1.73
2023-01-25T13:29:47.142Z,1.66
2023-01-25T13:31:53.952Z,1.61
2023-01-25T13:33:57.482Z,1.73
2023-01-25T13:36:41.160Z,1.81
2023-01-25T13:38:43.894Z,1.46
2023-01-25T13:41:02.553Z,1.45
2023-01-25T13:43:18.376Z,1.64
2023-01-25T13:45:22.384Z,1.39
2023-01-25T13:47:29.303Z,1.39
2023-01-25T13:49:37.917Z,0.55
2023-01-25T13:51:43.178Z,1.05
2023-01-25T13:53:56.398Z,1.01
2023-01-25T13:55:59.610Z,0.87
2023-01-25T13:58:17.845Z,1.01
2023-01-25T14:00:21.916Z,1.20
2023-01-25T14:02:26.813Z,1.36
2023-01-25T14:04:31.613Z,1.23
2023-01-25T14:06:38.023Z,1.28
2023-01-25T14:08:41.140Z,1.74
2023-01-25T14:10:45.437Z,1.52
2023-01-25T14:12:48.221Z,1.80
2023-01-25T14:14:50.944Z,1.81
2023-01-25T14:19:25.532Z,1.34
2023-01-25T14:21:29.087Z,1.93
2023-01-25T14:23:32.623Z,1.97
2023-01-25T14:25:35.379Z,2.04
2023-01-25T14:27:43.745Z,1.96
2023-01-25T14:29:49.728Z,1.90
2023-01-25T14:31:52.636Z,1.49
2023-01-25T14:33:58.255Z,1.47
2023-01-25T14:36:16.352Z,1.48
2023-01-25T14:38:32.428Z,1.36
2023-01-25T14:40:35.200Z,1.58
2023-01-25T14:42:37.971Z,1.80
2023-01-25T14:44:41.328Z,1.60
2023-01-25T14:46:44.207Z,1.79
2023-01-25T14:48:47.092Z,1.87
2023-01-25T14:50:49.967Z,1.93
2023-01-25T14:52:54.068Z,1.86
2023-01-25T14:54:59.670Z,1.97
2023-01-25T14:57:04.587Z,2.04
2023-01-25T14:59:08.101Z,2.06
2023-01-25T15:01:27.109Z,2.07
2023-01-25T15:03:31.771Z,2.05
2023-01-25T15:05:37.116Z,1.81
2023-01-25T15:07:45.679Z,2.01
2023-01-25T15:10:04.255Z,2.09
2023-01-25T15:12:27.053Z,1.96
2023-01-25T15:14:30.001Z,1.66
2023-01-25T15:16:36.512Z,2.08
2023-01-25T15:18:47.271Z,2.09
2023-01-25T15:20:50.123Z,2.06
2023-01-25T15:22:52.947Z,2.10
2023-01-25T15:24:58.514Z,2.09
2023-01-25T15:27:03.308Z,1.78
2023-01-25T15:29:13.601Z,2.01
2023-01-25T15:31:18.866Z,1.63
2023-01-25T15:33:24.635Z,1.97
2023-01-25T15:35:27.775Z,2.02
2023-01-25T15:37:30.550Z,2.05
2023-01-25T15:39:34.862Z,2.11
2023-01-25T15:41:37.609Z,2.11
2023-01-25T15:43:41.873Z,1.93
2023-01-25T15:45:46.726Z,1.75
2023-01-25T15:47:49.777Z,2.05
2023-01-25T15:49:53.799Z,1.89
2023-01-25T15:51:56.830Z,1.87
2023-01-25T15:53:59.912Z,4.95
2023-01-25T15:56:06.873Z,6.81
2023-01-25T15:58:12.335Z,5.48
2023-01-25T16:00:23.104Z,4.39
2023-01-25T16:02:26.512Z,3.43
2023-01-25T16:04:29.274Z,3.08
2023-01-25T16:06:37.618Z,2.85
2023-01-25T16:08:40.476Z,2.66
2023-01-25T16:10:43.143Z,2.54
2023-01-25T16:12:46.261Z,2.46
2023-01-25T16:14:49.160Z,2.38
2023-01-25T16:16:53.883Z,2.26
2023-01-25T16:18:56.619Z,2.22
2023-01-25T16:20:59.290Z,2.11
2023-01-25T16:23:02.071Z,2.12
2023-01-25T16:25:05.054Z,2.07
2023-01-25T16:27:10.023Z,2.01
2023-01-25T16:29:13.770Z,1.93
2023-01-25T16:31:31.202Z,1.84
2023-01-25T16:33:36.682Z,1.83
2023-01-25T16:35:39.417Z,1.84
2023-01-25T16:37:42.107Z,1.81
2023-01-25T16:39:45.412Z,1.77
2023-01-25T16:41:48.448Z,1.70
2023-01-25T16:43:51.637Z,1.76
2023-01-25T16:45:58.668Z,1.83
2023-01-25T16:48:01.904Z,1.66
2023-01-25T16:50:13.465Z,1.87
2023-01-25T16:52:16.186Z,1.80
2023-01-25T16:54:20.438Z,1.70
2023-01-25T16:56:24.806Z,1.69
2023-01-25T16:58:27.709Z,1.75
2023-01-25T17:00:31.689Z,1.58
2023-01-25T17:02:34.643Z,1.72
2023-01-25T17:04:37.404Z,1.77
2023-01-25T17:06:44.041Z,1.78
2023-01-25T17:08:47.119Z,1.79
2023-01-25T17:10:50.567Z,1.82
2023-01-25T17:12:53.560Z,1.86
2023-01-25T17:14:59.404Z,1.83
2023-01-25T17:17:02.212Z,1.74
2023-01-25T17:19:07.052Z,1.61
2023-01-25T17:21:09.809Z,1.52
2023-01-25T17:23:13.899Z,1.39
2023-01-25T17:25:16.707Z,1.71
2023-01-25T17:27:20.955Z,1.51
2023-01-25T17:29:24.239Z,1.55
2023-01-25T17:31:29.869Z,1.44
2023-01-25T17:33:32.774Z,1.49
2023-01-25T17:35:36.365Z,1.43
2023-01-25T17:37:41.032Z,1.46
2023-01-25T17:39:45.209Z,1.55
2023-01-25T17:41:50.559Z,1.60
2023-01-25T17:43:53.408Z,1.51
2023-01-25T17:45:56.164Z,1.46
2023-01-25T17:47:58.964Z,1.72
2023-01-25T17:50:01.712Z,1.71
2023-01-25T17:52:04.657Z,1.74
2023-01-25T17:54:07.493Z,1.13
2023-01-25T17:56:13.712Z,1.75
2023-01-25T17:58:16.475Z,1.65
2023-01-25T18:00:20.121Z,1.56
2023-01-25T18:02:22.922Z,1.78
2023-01-25T18:04:25.773Z,1.71
2023-01-25T18:06:30.267Z,1.78
2023-01-25T18:08:33.094Z,1.17
2023-01-25T18:10:35.884Z,1.80
2023-01-25T18:12:40.190Z,1.60
2023-01-25T18:14:45.027Z,1.32
2023-01-25T18:16:47.847Z,1.38
2023-01-25T18:18:51.854Z,1.39
2023-01-25T18:21:03.530Z,1.20
2023-01-25T18:23:06.359Z,0.73
2023-01-25T18:25:28.915Z,0.53
2023-01-25T18:27:31.724Z,0.74
2023-01-25T18:29:47.196Z,1.06
2023-01-25T18:31:51.056Z,1.15
2023-01-25T18:33:54.050Z,1.24
2023-01-25T18:36:00.835Z,0.71
2023-01-25T18:38:05.300Z,0.83
2023-01-25T18:40:10.685Z,0.80
2023-01-25T18:42:13.594Z,1.26
2023-01-25T18:44:16.434Z,1.46
2023-01-25T18:46:20.605Z,1.42
2023-01-25T18:48:30.842Z,1.21
2023-01-25T18:50:33.820Z,1.18
2023-01-25T18:52:37.027Z,0.60
2023-01-25T18:54:39.905Z,1.11
2023-01-25T18:56:42.649Z,1.07
2023-01-25T18:58:46.249Z,1.01
2023-01-25T19:00:48.997Z,0.84
2023-01-25T19:02:53.356Z,-0.54
2023-01-25T19:04:56.221Z,0.59
2023-01-25T19:07:01.473Z,0.45
2023-01-25T19:09:04.420Z,0.29
2023-01-25T19:11:09.836Z,0.46
2023-01-25T19:13:12.611Z,0.79
2023-01-25T19:15:15.617Z,0.90
2023-01-25T19:17:18.418Z,1.20
2023-01-25T19:19:23.538Z,0.94
2023-01-25T19:21:28.887Z,1.24
2023-01-25T19:23:34.336Z,1.03
2023-01-25T19:25:37.109Z,1.24
2023-01-25T19:27:39.879Z,1.44
2023-01-25T19:29:42.679Z,1.18
2023-01-25T19:31:45.536Z,1.49
2023-01-25T19:33:48.998Z,1.24
2023-01-25T19:36:01.360Z,1.32
2023-01-25T19:38:04.207Z,0.73
2023-01-25T19:40:07.941Z,1.04
2023-01-25T19:42:10.779Z,1.25
2023-01-25T19:44:15.178Z,1.36
2023-01-25T19:46:19.356Z,1.29
2023-01-25T19:48:22.131Z,1.38
2023-01-25T19:50:24.923Z,1.44
2023-01-25T19:52:29.365Z,1.50
2023-01-25T19:54:32.106Z,1.52
2023-01-25T19:56:36.846Z,1.30
2023-01-25T19:58:39.549Z,0.96
2023-01-25T20:00:42.678Z,0.88
2023-01-25T20:02:45.765Z,-0.35
2023-01-25T20:04:48.628Z,-0.22
2023-01-25T20:06:52.576Z,-2.09
2023-01-25T20:08:56.834Z,1.07
2023-01-25T20:11:00.340Z,1.29
2023-01-25T20:13:03.118Z,1.12
2023-01-25T20:15:06.947Z,1.32
2023-01-25T20:17:09.717Z,1.39
2023-01-25T20:19:12.982Z,1.34
2023-01-25T20:21:17.755Z,1.35
2023-01-25T20:23:20.513Z,1.44
2023-01-25T20:25:25.823Z,1.01
2023-01-25T20:27:29.115Z,0.85
2023-01-25T20:29:31.822Z,0.24
2023-01-25T20:31:36.515Z,0.46
2023-01-25T20:33:39.298Z,0.79
2023-01-25T20:35:42.291Z,0.50
2023-01-25T20:37:44.992Z,0.53
2023-01-25T20:39:47.730Z,0.32
2023-01-25T20:41:53.639Z,0.94
2023-01-25T20:44:00.147Z,0.40
2023-01-25T20:46:03.333Z,1.19
2023-01-25T20:48:06.482Z,1.18
2023-01-25T20:50:10.533Z,0.95
2023-01-25T20:52:13.915Z,1.32
2023-01-25T20:54:18.100Z,1.36
2023-01-25T20:56:21.057Z,1.29
2023-01-25T20:58:25.250Z,0.85
2023-01-25T21:00:27.994Z,0.73
2023-01-25T21:02:30.757Z,0.64
2023-01-25T21:04:33.524Z,0.46
2023-01-25T21:06:36.468Z,0.63
2023-01-25T21:08:39.205Z,0.82
2023-01-25T21:10:47.166Z,0.93
2023-01-25T21:12:49.921Z,0.83
2023-01-25T21:14:54.048Z,0.72
2023-01-25T21:16:56.834Z,0.94
2023-01-25T21:19:04.675Z,0.93
2023-01-25T21:21:09.691Z,0.08
2023-01-25T21:23:12.452Z,0.03
2023-01-25T21:25:15.290Z,0.86
2023-01-25T21:27:18.056Z,0.83
2023-01-25T21:29:21.163Z,0.49
2023-01-25T21:31:27.618Z,0.36
2023-01-25T21:33:30.400Z,0.59
2023-01-25T21:35:34.081Z,0.53
2023-01-25T21:37:37.304Z,0.98
2023-01-25T21:39:40.063Z,1.04
2023-01-25T21:41:42.770Z,1.09
2023-01-25T21:44:04.143Z,1.06
2023-01-25T21:46:16.224Z,1.15
2023-01-25T21:48:40.400Z,0.76
2023-01-25T21:51:00.842Z,1.21
2023-01-25T21:53:03.588Z,1.22
2023-01-25T21:55:07.282Z,1.23
2023-01-25T21:57:11.564Z,0.89
2023-01-25T21:59:15.239Z,0.76
2023-01-25T22:01:20.184Z,0.96
2023-01-25T22:03:24.596Z,0.79
2023-01-25T22:05:27.411Z,0.55
2023-01-25T22:07:32.190Z,0.37
2023-01-25T22:09:36.320Z,0.47
2023-01-25T22:11:39.118Z,0.45
2023-01-25T22:13:42.391Z,0.20
2023-01-25T22:15:45.211Z,0.06
2023-01-25T22:17:48.029Z,-0.21
2023-01-25T22:19:52.139Z,0.37
2023-01-25T22:21:54.921Z,0.02
2023-01-25T22:23:58.519Z,0.31
2023-01-25T22:26:03.010Z,0.37
2023-01-25T22:28:07.337Z,0.24
2023-01-25T22:30:11.814Z,0.47
2023-01-25T22:32:14.800Z,0.17
2023-01-25T22:34:17.634Z,0.20
2023-01-25T22:36:23.715Z,-0.06
2023-01-25T22:38:26.442Z,-0.22
2023-01-25T22:40:29.088Z,0.12
2023-01-25T22:42:31.788Z,-0.09
2023-01-25T22:44:34.471Z,-0.12
2023-01-25T22:46:37.978Z,-0.09
2023-01-25T22:48:40.658Z,-0.06
2023-01-25T22:50:43.303Z,0.24
2023-01-25T22:52:48.905Z,0.05
2023-01-25T22:54:51.811Z,0.48
2023-01-25T22:56:54.484Z,0.46
2023-01-25T22:58:57.176Z,0.17
2023-01-25T23:00:59.881Z,0.34
2023-01-25T23:03:02.636Z,0.55
2023-01-25T23:05:05.973Z,0.11
2023-01-25T23:07:18.415Z,0.17
2023-01-25T23:09:22.511Z,-0.25
2023-01-25T23:11:25.928Z,0.37
2023-01-25T23:13:29.591Z,0.22
2023-01-25T23:15:31.502Z,0.03
2023-01-25T23:17:52.647Z,0.02
2023-01-25T23:19:55.386Z,-0.25
2023-01-25T23:21:58.019Z,-0.13
2023-01-25T23:24:01.612Z,-0.32
2023-01-25T23:26:06.091Z,-0.86
2023-01-25T23:28:08.803Z,-0.55
2023-01-25T23:30:12.476Z,-0.29
2023-01-25T23:32:15.384Z,-0.52
2023-01-25T23:34:18.154Z,-0.55
2023-01-25T23:36:22.384Z,-1.03
2023-01-25T23:38:25.096Z,-0.12
2023-01-25T23:40:27.818Z,-0.60
2023-01-25T23:42:31.906Z,0.12
2023-01-25T23:44:34.625Z,-0.51
2023-01-25T23:46:37.523Z,-0.09
2023-01-25T23:48:40.269Z,0.13
2023-01-25T23:50:42.954Z,-0.18
2023-01-25T23:52:45.632Z,0.05
2023-01-25T23:54:48.320Z,-0.18
2023-01-25T23:56:51.040Z,0.08
2023-01-25T23:58:55.571Z,0.38
